Latest Coastal Weather Observations for Mandora

IDW60701

Issued at 1:25 am WST Sunday 24 August 2014 (issued every 10 minutes, with the page automatically refreshed every 10 minutes)

About coastal observations | Map of coastal stations | Coastal observations for WA | Marine services | Other Formats
Station Details ID: 004019 Name: MANDORA Lat: -19.74 Lon: 120.84 Height: 7.5 m
Data from the previous 72 hours. | See also: Recent months at Mandora
Date/Time
WST
Temp

°C
Wind Pressure Rain
since 9am
mm
Weather Cloud Vis
km
Sea
Height
m
Swell
Dir
 
Speed
knots
Gust
knots
hPa Trend Height
m
Period
s
Dir
24/01:00am 15.1 SSE 5 7 1017.8 - 0.0 - - - - - - -
24/12:30am 14.1 SSE 5 6 1018.0 - 0.0 - - - - - - -
24/12:00am 14.9 SSE 5 7 1018.0 - 0.0 - - - - - - -
 
Date/Time
WST
Temp

°C
Wind Pressure Rain
since 9am
mm
Weather Cloud Vis
km
Sea
Height
m
Swell
Dir
 
Speed
knots
Gust
knots
hPa Trend Height
m
Period
s
Dir
23/11:30pm 10.8 SSE 5 6 1018.2 - 0.0 - - - - - - -
23/11:00pm 11.2 SE 4 5 1018.3 - 0.0 - - - - - - -
23/10:30pm 11.8 SSE 4 5 1018.4 - 0.0 - - - - - - -
23/10:00pm 13.2 S 3 5 1018.6 - 0.0 - - - - - - -
23/09:30pm 13.3 SE 3 4 1018.6 - 0.0 - - - - - - -
23/09:00pm 14.2 S 3 4 1018.5 - 0.0 - - - - - - -
23/08:30pm 14.9 CALM 0 0 1018.4 - 0.0 - - - - - - -
23/08:00pm 16.8 SW 3 4 1018.1 - 0.0 - - - - - - -
23/07:30pm 18.5 WSW 5 5 1017.8 - 0.0 - - - - - - -
23/07:00pm 19.4 WSW 6 8 1017.4 - 0.0 - - - - - - -
23/06:30pm 21.1 W 4 5 1016.9 - 0.0 - - - - - - -
23/06:00pm 22.5 WNW 6 9 1016.6 - 0.0 - - - - - - -
23/05:30pm 24.6 WNW 5 8 1016.2 - 0.0 - - - - - - -
23/05:00pm 29.0 E 6 9 1015.8 - 0.0 - - - - - - -
23/04:30pm 31.5 SE 10 15 1015.6 - 0.0 - - - - - - -
23/04:00pm 32.1 ESE 9 18 1015.6 - 0.0 - - - - - - -
23/03:30pm 32.6 SE 10 18 1015.6 - 0.0 - - - - - - -
23/03:00pm 32.6 SE 11 18 1015.8 - 0.0 - - - - - - -
23/02:30pm 33.0 SSE 11 19 1016.0 - 0.0 - - - - - - -
23/02:00pm 33.0 E 9 15 1016.2 - 0.0 - - - - - - -
23/01:30pm 33.3 ESE 10 21 1016.4 - 0.0 - - - - - - -
23/01:00pm 32.8 ESE 9 14 1016.8 - 0.0 - - - - - - -
23/12:30pm 31.3 N 7 19 1017.2 - 0.0 - - - - - - -
23/12:00pm 30.9 N 12 17 1017.5 - 0.0 - - - - - - -
23/11:30am 31.0 NNE 10 16 1017.9 - 0.0 - - - - - - -
23/11:00am 31.2 ENE 10 17 1018.5 - 0.0 - - - - - - -
23/10:30am 30.7 ENE 11 20 1018.9 - 0.0 - - - - - - -
23/10:00am 29.6 ENE 9 14 1019.3 - 0.0 - - - - - - -
23/09:30am 27.8 ENE 8 14 1019.6 - 0.0 - - - - - - -
23/09:00am 25.1 ENE 8 15 1019.7 - 0.0 - - - - - - -
23/08:30am 24.2 E 9 15 1019.5 - 0.0 - - - - - - -
23/08:00am 21.3 E 7 15 1019.3 - 0.0 - - - - - - -
23/07:30am 17.7 SE 6 8 1019.1 - 0.0 - - - - - - -
23/07:00am 14.5 SE 6 7 1018.6 - 0.0 - - - - - - -
23/06:30am 11.9 ESE 6 7 1018.2 - 0.0 - - - - - - -
23/06:00am 12.1 SE 6 7 1017.8 - 0.0 - - - - - - -
23/05:30am 13.0 SE 7 9 1017.5 - 0.0 - - - - - - -
23/05:00am 12.5 SE 5 6 1017.0 - 0.0 - - - - - - -
23/04:30am 12.8 SE 6 7 1016.6 - 0.0 - - - - - - -
23/04:00am 12.9 SE 6 7 1016.4 - 0.0 - - - - - - -
23/03:30am 12.6 ESE 7 8 1016.5 - 0.0 - - - - - - -
23/03:00am 11.8 SE 5 6 1016.1 - 0.0 - - - - - - -
23/02:30am 11.2 SE 5 5 1016.2 - 0.0 - - - - - - -
23/02:00am 11.2 SSE 4 5 1016.3 - 0.0 - - - - - - -
23/01:30am 10.4 SSE 4 4 1016.4 - 0.0 - - - - - - -
23/01:00am 12.5 SSE 4 5 1016.6 - 0.0 - - - - - - -
23/12:30am 13.8 SE 4 6 1016.8 - 0.0 - - - - - - -
23/12:00am 15.3 S 7 8 1017.0 - 0.0 - - - - - - -
 
Date/Time
WST
Temp

°C
Wind Pressure Rain
since 9am
mm
Weather Cloud Vis
km
Sea
Height
m
Swell
Dir
 
Speed
knots
Gust
knots
hPa Trend Height
m
Period
s
Dir
22/11:30pm 15.0 SSE 4 6 1017.0 - 0.0 - - - - - - -
22/11:00pm 15.2 S 5 6 1017.0 - 0.0 - - - - - - -
22/10:30pm 14.4 S 5 6 1017.3 - 0.0 - - - - - - -
22/10:00pm 15.3 S 5 6 1017.2 - 0.0 - - - - - - -
22/09:30pm 15.9 S 6 8 1017.3 - 0.0 - - - - - - -
22/09:00pm 14.8 SSE 5 7 1017.2 - 0.0 - - - - - - -
22/08:30pm 15.2 S 5 6 1017.1 - 0.0 - - - - - - -
22/08:00pm 17.5 SSE 5 6 1016.9 - 0.0 - - - - - - -
22/07:30pm 17.9 S 6 6 1016.4 - 0.0 - - - - - - -
22/07:00pm 18.6 WSW 5 5 1015.9 - 0.0 - - - - - - -
22/06:30pm 19.4 W 5 6 1015.4 - 0.0 - - - - - - -
22/06:00pm 20.9 W 5 7 1014.9 - 0.0 - - - - - - -
22/05:30pm 22.9 WNW 4 6 1014.6 - 0.0 - - - - - - -
22/05:00pm 24.5 NW 6 9 1014.3 - 0.0 - - - - - - -
22/04:30pm 25.9 NW 7 9 1014.0 - 0.0 - - - - - - -
22/04:00pm 27.0 NW 7 9 1013.9 - 0.0 - - - - - - -
22/03:30pm 27.4 NNW 7 10 1013.7 - 0.0 - - - - - - -
22/03:00pm 27.8 NNW 8 11 1013.7 - 0.0 - - - - - - -
22/02:30pm 28.3 N 9 12 1013.9 - 0.0 - - - - - - -
22/02:00pm 28.4 N 9 13 1014.0 - 0.0 - - - - - - -
22/01:30pm 28.9 N 9 14 1014.2 - 0.0 - - - - - - -
22/01:00pm 29.3 N 9 12 1014.6 - 0.0 - - - - - - -
22/12:30pm 29.3 NNE 11 15 1015.0 - 0.0 - - - - - - -
22/12:00pm 30.0 NNE 13 19 1015.2 - 0.0 - - - - - - -
22/11:30am 31.5 NNE 14 20 1015.5 - 0.0 - - - - - - -
22/11:00am 31.4 ENE 12 19 1015.9 - 0.0 - - - - - - -
22/10:30am 30.0 ENE 10 16 1016.4 - 0.0 - - - - - - -
22/10:00am 28.5 E 8 13 1016.9 - 0.0 - - - - - - -
22/09:30am 27.4 E 9 15 1017.2 - 0.0 - - - - - - -
22/09:00am 26.4 E 7 12 1017.2 - 0.0 - - - - - - -
22/08:30am 23.7 ESE 7 10 1017.1 - 0.0 - - - - - - -
22/08:00am 20.1 ESE 6 8 1016.9 - 0.0 - - - - - - -
22/07:30am 16.3 SE 5 7 1016.6 - 0.0 - - - - - - -
22/07:00am 11.8 E 4 5 1016.5 - 0.0 - - - - - - -
22/06:30am 10.3 ESE 4 5 1016.1 - 0.0 - - - - - - -
22/06:00am 11.0 SE 4 5 1015.8 - 0.0 - - - - - - -
22/05:30am 12.8 SE 5 6 1015.4 - 0.0 - - - - - - -
22/05:00am 14.2 SSE 5 8 1014.9 - 0.0 - - - - - - -
22/04:30am 14.1 SSE 5 7 1014.7 - 0.0 - - - - - - -
22/04:00am 13.8 SE 4 6 1014.6 - 0.0 - - - - - - -
22/03:30am 15.5 S 7 9 1014.4 - 0.0 - - - - - - -
22/03:00am 15.1 S 7 10 1014.3 - 0.0 - - - - - - -
22/02:30am 15.5 S 7 9 1014.4 - 0.0 - - - - - - -
22/02:00am 15.2 S 7 9 1014.6 - 0.0 - - - - - - -
22/01:30am 15.3 S 7 9 1014.8 - 0.0 - - - - - - -
22/01:00am 15.0 S 7 8 1014.9 - 0.0 - - - - - - -
22/12:30am 14.0 SSW 7 8 1015.1 - 0.0 - - - - - - -
22/12:00am 14.5 S 6 7 1015.2 - 0.0 - - - - - - -
 
Date/Time
WST
Temp

°C
Wind Pressure Rain
since 9am
mm
Weather Cloud Vis
km
Sea
Height
m
Swell
Dir
 
Speed
knots
Gust
knots
hPa Trend Height
m
Period
s
Dir
21/11:30pm 14.8 S 6 8 1015.4 - 0.0 - - - - - - -
21/11:00pm 14.5 SSW 6 7 1015.6 - 0.0 - - - - - - -
21/10:30pm 12.7 SSW 5 6 1015.7 - 0.0 - - - - - - -
21/10:00pm 14.7 SW 4 5 1015.9 - 0.0 - - - - - - -
21/09:30pm 16.0 SW 6 7 1015.7 - 0.0 - - - - - - -
21/09:00pm 16.7 WSW 6 7 1015.7 - 0.0 - - - - - - -
21/08:30pm 17.0 SW 7 8 1015.5 - 0.0 - - - - - - -
21/08:00pm 17.6 WSW 7 8 1015.2 - 0.0 - - - - - - -
21/07:30pm 18.2 WSW 7 9 1014.9 - 0.0 - - - - - - -
21/07:00pm 18.2 WSW 6 7 1014.6 - 0.0 - - - - - - -
21/06:30pm 19.7 W 6 8 1014.1 - 0.0 - - - - - - -
21/06:00pm 21.5 W 7 9 1013.8 - 0.0 - - - - - - -
21/05:30pm 23.6 W 6 10 1013.6 - 0.0 - - - - - - -
21/05:00pm 25.9 WNW 6 9 1013.5 - 0.0 - - - - - - -
21/04:30pm 27.6 WNW 7 10 1013.5 - 0.0 - - - - - - -
21/04:00pm 28.2 NW 7 11 1013.4 - 0.0 - - - - - - -
21/03:30pm 29.0 NW 9 12 1013.2 - 0.0 - - - - - - -
21/03:00pm 29.8 NW 8 12 1013.1 - 0.0 - - - - - - -
21/02:30pm 30.1 NNW 8 13 1013.2 - 0.0 - - - - - - -
21/02:00pm 30.1 NNW 10 13 1013.5 - 0.0 - - - - - - -
21/01:30pm 30.1 N 9 14 1013.6 - 0.0 - - - - - - -
21/01:00pm 30.1 NNW 10 14 1014.1 - 0.0 - - - - - - -
21/12:30pm 30.6 N 9 13 1014.4 - 0.0 - - - - - - -
21/12:00pm 30.9 NE 6 10 1014.8 - 0.0 - - - - - - -
21/11:30am 30.8 ENE 6 9 1015.3 - 0.0 - - - - - - -
21/11:00am 30.5 E 5 8 1015.8 - 0.0 - - - - - - -
21/10:30am 29.7 E 5 7 1016.1 - 0.0 - - - - - - -
21/10:00am 27.9 ESE 4 7 1016.5 - 0.0 - - - - - - -
21/09:30am 26.1 SE 4 6 1016.5 - 0.0 - - - - - - -
21/09:00am 22.9 ESE 4 7 1016.6 - 0.0 - - - - - - -
21/08:30am 20.3 ESE 6 8 1016.6 - 0.0 - - - - - - -
21/08:00am 16.9 E 5 8 1016.3 - 0.0 - - - - - - -
21/07:30am 13.3 ESE 5 7 1016.1 - 0.0 - - - - - - -
21/07:00am 10.0 E 5 7 1016.0 - 0.0 - - - - - - -
21/06:30am 8.3 ESE 6 7 1015.6 - 0.0 - - - - - - -
21/06:00am 7.8 E 5 8 1015.2 - 0.0 - - - - - - -
21/05:30am 8.0 E 5 9 1015.0 - 0.0 - - - - - - -
21/05:00am 7.2 ENE 4 5 1014.6 - 0.0 - - - - - - -
21/04:30am 7.8 ENE 5 6 1014.4 - 0.0 - - - - - - -
21/04:00am 7.9 ENE 5 7 1014.3 - 0.0 - - - - - - -
21/03:30am 7.4 E 1 4 1014.3 - 0.0 - - - - - - -
21/03:00am 7.9 E 4 5 1014.2 - 0.0 - - - - - - -
21/02:30am 9.7 E 4 5 1014.2 - 0.0 - - - - - - -
21/02:00am 12.3 E 5 7 1014.5 - 0.0 - - - - - - -
21/01:30am 13.8 S 5 6 1014.4 - 0.0 - - - - - - -

Other Formats:

Comma delimited format used in spreadsheet applications
http://www.bom.gov.au/fwo/IDW60701/IDW60701.94200.axf

JavaScript Object Notation format (JSON) in row-major order
http://www.bom.gov.au/fwo/IDW60701/IDW60701.94200.json